Latest Weather Observations for Rockhampton

IDQ60801

Issued at 1:02 pm EST Tuesday 27 January 2015 (issued every 30 minutes, with the page automatically refreshed every 10 minutes)

About weather observations | Map of weather stations | Latest weather observations for QLD | Other Formats
Station Details ID: 039083 Name: ROCKHAMPTON AERO Lat: -23.38 Lon: 150.48 Height: 10.4 m
Data from the previous 72 hours. | See also: Recent months at Rockhampton
Date/Time
EST
Temp
°C
App
Temp
°C
Dew
Point
Rel
Hum
%
Delta-T
°C
Wind Press
QNH
hPa
Press
MSL
hPa
Rain
since 9 am
mm
Dir
 
Spd
km/h
Gust
km/h
Spd
kts
Gust
kts
27/12:30pm 31.4 34.0 23.9 64 5.2 NNE 17 26 9 14 1002.7 - 0.0
27/12:00pm 30.6 33.6 24.6 70 4.2 NE 17 24 9 13 1003.5 1003.4 0.0
27/11:30am 29.0 32.2 24.3 76 3.3 NNE 15 24 8 13 1004.0 - 0.0
27/11:00am 30.8 33.2 24.2 68 4.6 ENE 19 26 10 14 1004.1 - 0.0
27/10:30am 30.2 32.6 24.3 70 4.1 E 19 28 10 15 1004.5 - 0.0
27/10:00am 29.4 32.1 24.2 73 3.6 E 17 24 9 13 1004.7 - 0.0
27/09:30am 29.2 31.4 24.2 74 3.5 ESE 20 24 11 13 1004.7 - 0.0
27/09:00am 29.1 32.3 24.4 76 3.3 E 15 22 8 12 1004.9 1004.8 16.6
27/08:00am 27.2 30.0 23.7 81 2.4 E 15 22 8 12 1004.9 - 16.6
27/07:30am 26.8 29.6 23.7 83 2.1 E 15 22 8 12 1004.9 - 16.6
27/07:00am 26.1 29.9 23.5 85 1.8 E 9 15 5 8 1004.9 - 16.6
27/06:30am 25.7 28.8 23.5 88 1.5 E 13 20 7 11 1004.2 - 16.6
27/06:00am 25.6 28.7 23.6 89 1.4 ENE 13 20 7 11 1004.2 1004.1 16.6
27/05:30am 25.9 29.1 23.7 88 1.5 E 13 20 7 11 1003.9 - 16.6
27/05:00am 26.1 29.0 23.8 87 1.6 E 15 20 8 11 1003.8 - 16.6
27/04:30am 26.2 29.7 24.2 89 1.4 E 13 20 7 11 1003.7 - 16.6
27/04:00am 26.0 29.1 24.1 89 1.3 E 15 22 8 12 1003.5 - 16.6
27/03:30am 26.3 29.4 24.1 88 1.5 E 15 24 8 13 1003.4 - 16.6
27/03:00am 26.6 30.0 24.7 89 1.3 E 15 20 8 11 1003.6 1003.5 16.6
27/02:30am 26.8 30.7 24.8 89 1.4 ESE 13 20 7 11 1003.2 - 16.6
27/02:00am 26.7 32.2 24.7 89 1.4 NNE 4 9 2 5 1003.1 - 16.6
27/01:30am 26.6 32.3 23.7 84 2.0 CALM 0 0 0 0 1003.4 - 16.6
27/01:00am 27.3 32.6 24.9 87 1.7 E 6 9 3 5 1003.6 - 16.6
27/12:30am 27.1 32.6 24.1 84 2.1 NNE 2 6 1 3 1004.0 - 16.6
27/12:00am 27.0 31.6 24.7 87 1.6 NNE 9 13 5 7 1004.2 1004.1 16.6
 
Date/Time
EST
Temp
°C
App
Temp
°C
Dew
Point
Rel
Hum
%
Delta-T
°C
Wind Press
QNH
hPa
Press
MSL
hPa
Rain
since 9 am
mm
Dir
 
Spd
km/h
Gust
km/h
Spd
kts
Gust
kts
26/11:30pm 27.9 31.5 23.8 78 2.8 NNE 11 15 6 8 1004.7 - 16.6
26/11:00pm 28.1 33.6 26.1 89 1.4 ENE 9 11 5 6 1005.0 - 16.6
26/10:30pm 28.1 33.9 26.1 89 1.4 ENE 7 13 4 7 1005.2 - 16.6
26/10:00pm 28.3 34.3 26.0 87 1.6 ENE 6 7 3 4 1004.9 - 16.6
26/09:30pm 28.5 33.9 26.0 86 1.8 S 9 11 5 6 1004.9 - 16.6
26/09:00pm 28.3 33.9 25.8 86 1.8 N 7 9 4 5 1004.4 1004.3 16.6
26/08:30pm 28.4 34.1 25.9 86 1.8 N 7 9 4 5 1004.1 - 16.6
26/08:00pm 28.6 35.6 25.9 85 1.9 CALM 0 0 0 0 1004.0 - 16.6
26/07:30pm 28.6 35.4 25.6 84 2.1 CALM 0 6 0 3 1003.7 - 16.6
26/07:00pm 28.9 33.7 25.1 80 2.7 N 9 11 5 6 1003.3 - 16.6
26/06:30pm 30.0 36.1 24.4 72 3.9 CALM 0 0 0 0 1003.5 - 16.6
26/06:00pm 30.3 36.6 24.8 72 3.9 CALM 0 0 0 0 1003.1 1003.0 16.6
26/05:30pm 29.8 33.4 23.1 67 4.6 NNE 9 11 5 6 1002.9 - 16.6
26/05:00pm 29.5 33.0 22.9 67 4.5 NNE 9 13 5 7 1002.5 - 16.6
26/04:30pm 28.2 32.0 23.4 75 3.3 NNE 9 13 5 7 1002.8 - 16.6
26/04:00pm 25.4 27.8 22.9 86 1.7 NNE 15 24 8 13 1002.9 - 16.6
26/03:55pm 25.2 26.4 22.2 83 2.0 NNE 19 26 10 14 1003.3 - 16.6
26/03:30pm 25.0 24.7 21.1 79 2.6 WNW 24 32 13 17 1003.1 - 15.6
26/03:26pm 24.9 24.1 20.1 74 3.1 W 24 32 13 17 1003.6 - 14.6
26/03:14pm 24.0 22.3 21.4 85 1.7 NNW 32 50 17 27 1004.2 - 8.8
26/03:13pm 26.4 24.2 20.3 69 4.0 N 32 41 17 22 1004.3 - 7.4
26/03:11pm 27.2 22.2 20.0 64 4.7 WNW 46 63 25 34 1004.1 - 5.6
26/03:05pm 27.1 26.7 22.4 75 3.2 NNE 28 46 15 25 1003.0 - 2.2
26/03:00pm 28.8 27.8 19.6 57 6.0 NNE 24 39 13 21 1002.2 1002.1 0.0
26/02:51pm 29.6 29.8 20.2 57 6.2 NE 19 43 10 23 1002.7 - 0.0
26/02:30pm 34.9 38.8 24.3 54 7.5 SE 11 17 6 9 1002.1 - 0.0
26/02:23pm 35.3 39.0 24.6 54 7.6 S 13 20 7 11 1002.1 - 0.0
26/02:00pm 34.6 39.2 24.7 56 7.0 W 9 15 5 8 1002.4 - 0.0
26/01:30pm 34.9 40.1 24.8 55 7.2 SSE 6 13 3 7 1002.6 - 0.0
26/01:00pm 34.3 39.1 24.4 56 7.0 S 7 13 4 7 1003.0 - 0.0
26/12:30pm 33.7 38.6 24.6 59 6.4 SE 7 11 4 6 1003.5 - 0.0
26/12:00pm 33.0 37.4 24.5 61 6.0 SE 9 15 5 8 1004.0 1003.9 0.0
26/11:30am 32.7 37.9 24.8 63 5.6 SSE 6 11 3 6 1004.2 - 0.0
26/11:00am 32.3 37.3 24.5 63 5.5 W 6 13 3 7 1004.6 - 0.0
26/10:30am 31.5 36.1 24.2 65 5.1 SW 7 13 4 7 1004.9 - 0.0
26/10:00am 31.1 36.4 25.0 70 4.3 NE 6 9 3 5 1005.1 - 0.0
26/09:30am 30.0 35.1 24.0 70 4.2 W 4 11 2 6 1005.4 - 0.0
26/09:00am 29.7 34.7 23.9 71 4.0 SE 4 9 2 5 1005.6 1005.5 0.0
26/08:30am 29.4 34.0 24.1 73 3.7 SE 7 11 4 6 1005.8 - 0.0
26/08:00am 28.2 31.9 22.6 71 3.8 SSE 7 11 4 6 1005.7 - 0.0
26/07:30am 27.7 31.2 22.1 71 3.8 SE 7 11 4 6 1005.8 - 0.0
26/07:00am 27.0 32.1 22.6 77 3.0 CALM 0 0 0 0 1005.9 - 0.0
26/06:30am 26.0 30.4 22.1 79 2.6 ENE 2 7 1 4 1005.8 - 0.0
26/06:00am 25.7 29.2 21.8 79 2.6 SSE 6 7 3 4 1005.6 1005.5 0.0
26/05:30am 25.3 28.4 21.5 79 2.5 E 7 9 4 5 1005.2 - 0.0
26/05:00am 25.2 28.6 21.6 80 2.4 S 6 9 3 5 1005.0 - 0.0
26/04:30am 25.5 28.5 21.3 77 2.8 SE 7 15 4 8 1004.8 - 0.0
26/04:00am 25.8 29.4 22.4 81 2.3 SE 7 9 4 5 1004.6 - 0.0
26/03:30am 25.7 29.3 22.3 81 2.3 SE 7 13 4 7 1004.5 - 0.0
26/03:00am 25.8 28.3 21.8 78 2.7 S 11 17 6 9 1004.5 1004.4 0.0
26/02:30am 25.8 29.0 22.4 81 2.3 W 9 11 5 6 1004.2 - 0.0
26/02:00am 26.1 29.4 21.8 77 2.9 SE 7 9 4 5 1004.4 - 0.0
26/01:30am 25.8 27.7 22.1 80 2.5 E 15 20 8 11 1004.7 - 0.0
26/01:00am 26.2 27.3 21.2 74 3.3 E 17 28 9 15 1004.7 - 0.0
26/12:30am 26.1 29.0 21.8 77 2.9 E 9 20 5 11 1004.7 - 0.0
26/12:00am 26.8 29.8 21.9 74 3.3 SE 9 13 5 7 1004.9 1004.8 0.0
 
Date/Time
EST
Temp
°C
App
Temp
°C
Dew
Point
Rel
Hum
%
Delta-T
°C
Wind Press
QNH
hPa
Press
MSL
hPa
Rain
since 9 am
mm
Dir
 
Spd
km/h
Gust
km/h
Spd
kts
Gust
kts
25/11:30pm 26.9 29.2 21.3 71 3.7 ENE 11 17 6 9 1005.6 - 0.0
25/11:00pm 27.5 29.9 20.9 67 4.4 SE 9 13 5 7 1006.8 - 0.0
25/10:30pm 29.2 32.5 23.2 70 4.1 E 11 22 6 12 1006.9 - 0.0
25/10:00pm 29.4 35.2 25.7 80 2.6 N 6 9 3 5 1006.5 - 0.0
25/09:30pm 30.1 35.4 25.9 78 3.0 S 9 15 5 8 1006.1 - 0.0
25/09:00pm 30.5 34.7 25.4 74 3.6 N 13 15 7 8 1005.5 1005.4 0.0
25/08:30pm 30.5 35.2 25.6 75 3.5 N 11 13 6 7 1004.9 - 0.0
25/08:00pm 30.5 35.3 25.7 75 3.4 N 11 17 6 9 1004.1 - 0.0
25/07:30pm 31.4 35.6 25.3 70 4.3 N 13 19 7 10 1003.6 - 0.0
25/07:00pm 32.4 35.8 24.6 63 5.5 N 15 20 8 11 1003.5 - 0.0
25/06:30pm 34.0 37.9 22.9 52 7.7 N 7 9 4 5 1003.4 - 0.0
25/06:00pm 34.1 38.9 24.1 56 7.0 NNE 6 7 3 4 1002.9 1002.8 0.0
25/05:30pm 34.8 38.5 22.3 48 8.6 N 6 7 3 4 1002.3 - 0.0
25/05:00pm 35.5 38.5 21.3 43 9.6 N 7 15 4 8 1002.0 - 0.0
25/04:30pm 35.9 38.5 21.2 42 10.0 NW 9 15 5 8 1001.5 - 0.0
25/04:00pm 35.8 40.4 23.2 48 8.8 W 4 9 2 5 1001.9 - 0.0
25/03:30pm 35.7 38.1 21.5 43 9.7 SSW 11 15 6 8 1002.5 - 0.0
25/03:00pm 35.5 36.3 21.4 44 9.6 SSW 19 24 10 13 1003.2 1003.1 0.0
25/02:30pm 35.6 38.1 22.4 46 9.1 W 13 17 7 9 1003.4 - 0.0
25/02:00pm 35.4 37.4 22.2 46 9.1 WNW 15 19 8 10 1003.5 - 0.0
25/01:30pm 35.3 37.6 22.1 46 9.1 WNW 13 19 7 10 1003.8 - 0.0
25/01:00pm 35.1 37.1 23.0 49 8.4 W 17 24 9 13 1004.2 - 0.0
25/12:30pm 35.2 35.6 21.8 45 9.2 WSW 22 30 12 16 1004.6 - 0.0
25/12:00pm 34.6 35.9 22.6 49 8.3 WNW 20 26 11 14 1004.9 1004.8 0.0
25/11:30am 34.6 36.6 23.6 52 7.7 W 19 24 10 13 1005.4 - 0.0
25/11:00am 33.3 36.8 24.2 59 6.4 WNW 13 20 7 11 1005.8 - 0.0
25/10:30am 32.0 36.8 25.7 69 4.5 NW 11 17 6 9 1006.4 - 0.0
25/10:00am 31.6 36.4 26.2 73 3.9 W 13 20 7 11 1006.8 - 0.0
25/09:30am 30.9 35.8 25.8 74 3.6 WNW 11 15 6 8 1007.0 - 0.0
25/09:00am 29.9 35.3 26.0 79 2.8 NNW 9 13 5 7 1007.1 1007.0 0.0
25/08:30am 29.4 34.7 25.9 81 2.5 N 9 15 5 8 1007.2 - 0.0
25/08:00am 28.9 35.2 25.9 84 2.1 N 4 11 2 6 1007.2 - 0.0
25/07:30am 27.8 34.7 25.7 88 1.5 CALM 0 2 0 1 1007.4 - 0.0
25/07:00am 26.9 32.5 25.5 92 1.0 SE 6 7 3 4 1007.3 - 0.0
25/06:30am 26.2 32.4 25.2 94 0.7 SSE 2 6 1 3 1006.9 - 0.0
25/06:00am 25.6 32.1 25.0 96 0.4 CALM 0 0 0 0 1006.4 1006.3 0.0
25/05:30am 25.6 31.9 24.7 95 0.6 CALM 0 0 0 0 1006.0 - 0.0
25/05:00am 25.6 30.7 24.9 96 0.5 SSW 7 9 4 5 1005.8 - 0.0
25/04:30am 25.9 31.3 25.2 96 0.5 SSE 6 7 3 4 1005.5 - 0.0
25/04:00am 26.1 32.6 25.1 94 0.7 CALM 0 6 0 3 1005.4 - 0.0
25/03:30am 26.1 31.4 25.0 94 0.8 NE 6 13 3 7 1005.2 - 0.0
25/03:12am 26.1 32.4 24.8 92 0.9 CALM 0 0 0 0 1005.3 - 0.0
25/03:00am 26.2 31.4 24.8 92 1.0 ESE 6 7 3 4 1005.3 1005.2 0.0
25/02:30am 26.1 31.3 24.8 92 0.9 E 6 7 3 4 1005.4 - 0.0
25/02:22am 26.0 31.1 24.7 92 0.9 E 6 7 3 4 1005.3 - 0.0
25/02:00am 26.0 30.9 24.6 92 1.0 E 7 11 4 6 1005.3 - 0.0
25/01:30am 26.1 30.9 24.2 89 1.3 ESE 6 9 3 5 1005.6 - 0.0
25/01:00am 26.1 30.6 23.9 88 1.5 ESE 7 11 4 6 1005.8 - 0.0
25/12:30am 26.1 31.9 23.9 88 1.5 CALM 0 0 0 0 1006.1 - 0.0
25/12:00am 26.4 32.1 23.8 85 1.8 CALM 0 0 0 0 1006.2 1006.1 0.0
 
Date/Time
EST
Temp
°C
App
Temp
°C
Dew
Point
Rel
Hum
%
Delta-T
°C
Wind Press
QNH
hPa
Press
MSL
hPa
Rain
since 9 am
mm
Dir
 
Spd
km/h
Gust
km/h
Spd
kts
Gust
kts
24/11:30pm 26.3 32.0 23.8 86 1.7 CALM 0 0 0 0 1006.4 - 0.0
24/11:00pm 26.4 31.4 23.8 85 1.8 NW 4 7 2 4 1006.7 - 0.0
24/10:30pm 26.5 30.8 23.6 84 2.0 NW 7 9 4 5 1006.3 - 0.0
24/10:01pm 26.9 31.5 23.1 80 2.6 N 4 7 2 4 1006.4 - 0.0
24/10:00pm 26.8 31.0 23.1 80 2.5 N 6 7 3 4 1006.4 - 0.0
24/09:42pm 27.0 30.9 23.0 79 2.7 N 7 9 4 5 1006.3 - 0.0
24/09:30pm 27.3 30.8 22.9 77 3.0 N 9 11 5 6 1006.4 - 0.0
24/09:00pm 27.8 30.2 23.7 78 2.8 N 17 22 9 12 1005.9 1005.8 0.0
24/08:30pm 28.2 32.4 25.4 85 2.0 N 13 20 7 11 1005.9 - 0.0
24/08:00pm 28.8 33.8 23.9 75 3.4 NNW 4 11 2 6 1005.7 - 0.0
24/07:30pm 28.9 32.6 23.2 71 3.9 N 9 15 5 8 1005.3 - 0.0
24/07:00pm 28.4 34.0 25.4 84 2.1 ENE 6 9 3 5 1004.5 - 0.0
24/06:30pm 28.8 33.7 25.3 81 2.5 ENE 9 13 5 7 1004.4 - 0.0
24/06:00pm 28.9 32.2 25.1 80 2.7 ENE 17 24 9 13 1004.1 1004.0 0.0
24/05:30pm 29.8 33.6 24.7 74 3.6 E 13 24 7 13 1004.0 - 0.0
24/05:00pm 30.2 32.5 23.4 67 4.7 E 17 24 9 13 1003.6 - 0.0
24/04:30pm 29.4 30.9 23.1 69 4.3 SE 20 35 11 19 1004.0 - 0.0
24/04:15pm 29.7 29.7 23.0 67 4.6 SE 28 41 15 22 1004.0 - 0.0
24/04:00pm 32.4 35.8 23.3 58 6.3 N 11 19 6 10 1003.3 - 0.0
24/03:30pm 32.0 33.8 22.5 57 6.5 N 17 19 9 10 1003.1 - 0.0
24/03:00pm 32.0 34.9 23.2 59 6.1 N 13 19 7 10 1003.3 1003.2 0.0
24/02:30pm 31.9 33.9 22.2 56 6.6 NW 15 26 8 14 1003.6 - 0.0
24/02:00pm 33.0 35.5 21.0 49 8.1 NNW 9 17 5 9 1003.8 - 0.0
24/01:30pm 32.3 37.4 23.4 59 6.2 N 2 9 1 5 1003.9 - 0.0

Other Formats:

Comma delimited format used in spreadsheet applications
http://www.bom.gov.au/fwo/IDQ60801/IDQ60801.94374.axf

JavaScript Object Notation format (JSON) in row-major order
http://www.bom.gov.au/fwo/IDQ60801/IDQ60801.94374.json